sensor_id;sensor_type;location;lat;lon;timestamp;temperature;humidity
49236;DHT22;35067;48.134;8.378;2023-04-07T00:01:03;5.60;97.70
49236;DHT22;35067;48.134;8.378;2023-04-07T00:02:08;5.60;97.80
49236;DHT22;35067;48.134;8.378;2023-04-07T00:03:14;5.50;97.80
49236;DHT22;35067;48.134;8.378;2023-04-07T00:04:20;5.60;97.70
49236;DHT22;35067;48.134;8.378;2023-04-07T00:05:26;5.60;97.60
49236;DHT22;35067;48.134;8.378;2023-04-07T00:06:32;5.60;97.80
49236;DHT22;35067;48.134;8.378;2023-04-07T00:07:37;5.60;97.80
49236;DHT22;35067;48.134;8.378;2023-04-07T00:08:43;5.60;97.60
49236;DHT22;35067;48.134;8.378;2023-04-07T00:09:49;5.50;97.90
49236;DHT22;35067;48.134;8.378;2023-04-07T00:10:55;5.50;98.50
49236;DHT22;35067;48.134;8.378;2023-04-07T00:12:00;5.50;98.70
49236;DHT22;35067;48.134;8.378;2023-04-07T00:13:04;5.50;98.60
49236;DHT22;35067;48.134;8.378;2023-04-07T00:14:08;5.50;98.00
49236;DHT22;35067;48.134;8.378;2023-04-07T00:15:14;5.40;97.90
49236;DHT22;35067;48.134;8.378;2023-04-07T00:16:20;5.40;98.20
49236;DHT22;35067;48.134;8.378;2023-04-07T00:17:26;5.40;98.30
49236;DHT22;35067;48.134;8.378;2023-04-07T00:18:31;5.50;98.40
49236;DHT22;35067;48.134;8.378;2023-04-07T00:19:37;5.50;98.30
49236;DHT22;35067;48.134;8.378;2023-04-07T00:20:43;5.50;98.40
49236;DHT22;35067;48.134;8.378;2023-04-07T00:21:49;5.50;98.30
49236;DHT22;35067;48.134;8.378;2023-04-07T00:22:54;5.50;98.40
49236;DHT22;35067;48.134;8.378;2023-04-07T00:24:00;5.40;98.40
49236;DHT22;35067;48.134;8.378;2023-04-07T00:25:05;5.50;98.30
49236;DHT22;35067;48.134;8.378;2023-04-07T00:26:09;5.40;98.20
49236;DHT22;35067;48.134;8.378;2023-04-07T00:27:15;5.40;98.20
49236;DHT22;35067;48.134;8.378;2023-04-07T00:28:20;5.40;98.30
49236;DHT22;35067;48.134;8.378;2023-04-07T00:29:26;5.50;98.30
49236;DHT22;35067;48.134;8.378;2023-04-07T00:30:32;5.40;98.10
49236;DHT22;35067;48.134;8.378;2023-04-07T00:31:38;5.30;98.40
49236;DHT22;35067;48.134;8.378;2023-04-07T00:32:43;5.20;98.80
49236;DHT22;35067;48.134;8.378;2023-04-07T00:33:49;5.20;98.70
49236;DHT22;35067;48.134;8.378;2023-04-07T00:34:55;5.30;98.20
49236;DHT22;35067;48.134;8.378;2023-04-07T00:36:01;5.30;97.80
49236;DHT22;35067;48.134;8.378;2023-04-07T00:37:04;5.30;97.60
49236;DHT22;35067;48.134;8.378;2023-04-07T00:38:09;5.30;97.40
49236;DHT22;35067;48.134;8.378;2023-04-07T00:39:15;5.30;97.30
49236;DHT22;35067;48.134;8.378;2023-04-07T00:40:20;5.30;97.30
49236;DHT22;35067;48.134;8.378;2023-04-07T00:41:26;5.30;97.50
49236;DHT22;35067;48.134;8.378;2023-04-07T00:42:32;5.30;97.90
49236;DHT22;35067;48.134;8.378;2023-04-07T00:43:39;5.30;98.10
49236;DHT22;35067;48.134;8.378;2023-04-07T00:44:44;5.30;98.50
49236;DHT22;35067;48.134;8.378;2023-04-07T00:45:51;5.20;98.70
49236;DHT22;35067;48.134;8.378;2023-04-07T00:46:58;5.20;99.00
49236;DHT22;35067;48.134;8.378;2023-04-07T00:48:04;5.20;99.40
49236;DHT22;35067;48.134;8.378;2023-04-07T00:49:08;5.20;99.40
49236;DHT22;35067;48.134;8.378;2023-04-07T00:50:14;5.20;99.10
49236;DHT22;35067;48.134;8.378;2023-04-07T00:51:20;5.30;98.80
49236;DHT22;35067;48.134;8.378;2023-04-07T00:52:26;5.30;98.60
49236;DHT22;35067;48.134;8.378;2023-04-07T00:53:34;5.30;98.80
49236;DHT22;35067;48.134;8.378;2023-04-07T00:54:41;5.30;98.80
49236;DHT22;35067;48.134;8.378;2023-04-07T00:55:47;5.30;98.70
49236;DHT22;35067;48.134;8.378;2023-04-07T00:56:53;5.30;98.70
49236;DHT22;35067;48.134;8.378;2023-04-07T00:57:59;5.30;98.70
49236;DHT22;35067;48.134;8.378;2023-04-07T00:59:04;5.30;98.80
49236;DHT22;35067;48.134;8.378;2023-04-07T01:00:09;5.30;98.60
49236;DHT22;35067;48.134;8.378;2023-04-07T01:01:20;5.30;98.50
49236;DHT22;35067;48.134;8.378;2023-04-07T01:02:40;5.40;98.30
49236;DHT22;35067;48.134;8.378;2023-04-07T01:03:51;5.30;98.40
49236;DHT22;35067;48.134;8.378;2023-04-07T01:05:15;5.40;97.70
49236;DHT22;35067;48.134;8.378;2023-04-07T01:06:25;5.40;97.50
49236;DHT22;35067;48.134;8.378;2023-04-07T01:07:47;5.40;97.30
49236;DHT22;35067;48.134;8.378;2023-04-07T01:09:12;5.40;96.20
49236;DHT22;35067;48.134;8.378;2023-04-07T01:10:31;5.30;96.30
49236;DHT22;35067;48.134;8.378;2023-04-07T01:11:41;5.30;96.50
49236;DHT22;35067;48.134;8.378;2023-04-07T01:14:05;5.30;97.20
49236;DHT22;35067;48.134;8.378;2023-04-07T01:15:11;5.30;97.50
49236;DHT22;35067;48.134;8.378;2023-04-07T01:16:29;5.30;97.20
49236;DHT22;35067;48.134;8.378;2023-04-07T01:17:38;5.30;96.80
49236;DHT22;35067;48.134;8.378;2023-04-07T01:18:51;5.30;96.70
49236;DHT22;35067;48.134;8.378;2023-04-07T01:20:04;5.30;96.90
49236;DHT22;35067;48.134;8.378;2023-04-07T01:21:13;5.40;97.10
49236;DHT22;35067;48.134;8.378;2023-04-07T01:22:25;5.40;97.10
49236;DHT22;35067;48.134;8.378;2023-04-07T01:26:06;5.40;97.40
49236;DHT22;35067;48.134;8.378;2023-04-07T01:30:34;5.30;97.70
49236;DHT22;35067;48.134;8.378;2023-04-07T01:31:43;5.30;97.00
49236;DHT22;35067;48.134;8.378;2023-04-07T01:32:51;5.30;96.90
49236;DHT22;35067;48.134;8.378;2023-04-07T01:33:59;5.40;96.70
49236;DHT22;35067;48.134;8.378;2023-04-07T01:35:05;5.40;96.60
49236;DHT22;35067;48.134;8.378;2023-04-07T01:36:14;5.50;96.40
49236;DHT22;35067;48.134;8.378;2023-04-07T01:37:20;5.50;96.10
49236;DHT22;35067;48.134;8.378;2023-04-07T01:38:28;5.50;95.90
49236;DHT22;35067;48.134;8.378;2023-04-07T01:39:34;5.40;96.00
49236;DHT22;35067;48.134;8.378;2023-04-07T01:40:41;5.50;96.10
49236;DHT22;35067;48.134;8.378;2023-04-07T01:41:49;5.60;96.00
49236;DHT22;35067;48.134;8.378;2023-04-07T01:42:58;5.60;95.90
49236;DHT22;35067;48.134;8.378;2023-04-07T01:44:05;5.60;95.90
49236;DHT22;35067;48.134;8.378;2023-04-07T01:45:10;5.60;95.90
49236;DHT22;35067;48.134;8.378;2023-04-07T01:46:16;5.50;95.90
49236;DHT22;35067;48.134;8.378;2023-04-07T01:47:22;5.50;96.10
49236;DHT22;35067;48.134;8.378;2023-04-07T01:48:27;5.60;96.00
49236;DHT22;35067;48.134;8.378;2023-04-07T01:49:35;5.50;95.90
49236;DHT22;35067;48.134;8.378;2023-04-07T01:50:42;5.60;96.00
49236;DHT22;35067;48.134;8.378;2023-04-07T01:51:49;5.60;96.00
49236;DHT22;35067;48.134;8.378;2023-04-07T01:52:55;5.60;95.80
49236;DHT22;35067;48.134;8.378;2023-04-07T01:54:03;5.50;96.20
49236;DHT22;35067;48.134;8.378;2023-04-07T01:55:09;5.60;96.10
49236;DHT22;35067;48.134;8.378;2023-04-07T01:56:15;5.60;95.80
49236;DHT22;35067;48.134;8.378;2023-04-07T01:57:21;5.70;95.90
49236;DHT22;35067;48.134;8.378;2023-04-07T01:58:26;5.70;95.70
49236;DHT22;35067;48.134;8.378;2023-04-07T01:59:32;5.60;95.80
49236;DHT22;35067;48.134;8.378;2023-04-07T02:00:38;5.70;95.90
49236;DHT22;35067;48.134;8.378;2023-04-07T02:01:44;5.60;95.50
49236;DHT22;35067;48.134;8.378;2023-04-07T02:02:54;5.60;95.50
49236;DHT22;35067;48.134;8.378;2023-04-07T02:05:18;5.50;96.10
49236;DHT22;35067;48.134;8.378;2023-04-07T02:06:31;5.50;96.20
49236;DHT22;35067;48.134;8.378;2023-04-07T02:08:58;5.40;96.70
49236;DHT22;35067;48.134;8.378;2023-04-07T02:10:05;5.40;96.90
49236;DHT22;35067;48.134;8.378;2023-04-07T02:11:10;5.50;96.80
49236;DHT22;35067;48.134;8.378;2023-04-07T02:12:17;5.50;97.00
49236;DHT22;35067;48.134;8.378;2023-04-07T02:13:24;5.50;96.70
49236;DHT22;35067;48.134;8.378;2023-04-07T02:14:31;5.50;96.80
49236;DHT22;35067;48.134;8.378;2023-04-07T02:15:38;5.50;96.50
49236;DHT22;35067;48.134;8.378;2023-04-07T02:16:46;5.60;96.50
49236;DHT22;35067;48.134;8.378;2023-04-07T02:17:53;5.60;96.40
49236;DHT22;35067;48.134;8.378;2023-04-07T02:19:01;5.70;96.10
49236;DHT22;35067;48.134;8.378;2023-04-07T02:20:06;5.70;95.90
49236;DHT22;35067;48.134;8.378;2023-04-07T02:21:09;5.80;95.60
49236;DHT22;35067;48.134;8.378;2023-04-07T02:22:16;5.70;95.60
49236;DHT22;35067;48.134;8.378;2023-04-07T02:23:22;5.70;95.90
49236;DHT22;35067;48.134;8.378;2023-04-07T02:24:28;5.50;95.90
49236;DHT22;35067;48.134;8.378;2023-04-07T02:25:33;5.60;96.20
49236;DHT22;35067;48.134;8.378;2023-04-07T02:26:42;5.70;96.00
49236;DHT22;35067;48.134;8.378;2023-04-07T02:27:48;5.60;96.20
49236;DHT22;35067;48.134;8.378;2023-04-07T02:28:53;5.60;96.10
49236;DHT22;35067;48.134;8.378;2023-04-07T02:29:59;5.70;96.00
49236;DHT22;35067;48.134;8.378;2023-04-07T02:31:04;5.70;95.90
49236;DHT22;35067;48.134;8.378;2023-04-07T02:32:09;5.70;95.80
49236;DHT22;35067;48.134;8.378;2023-04-07T02:33:15;5.70;95.60
49236;DHT22;35067;48.134;8.378;2023-04-07T02:34:21;5.60;95.70
49236;DHT22;35067;48.134;8.378;2023-04-07T02:35:26;5.60;95.80
49236;DHT22;35067;48.134;8.378;2023-04-07T02:36:32;6.50;96.10
49236;DHT22;35067;48.134;8.378;2023-04-07T02:37:38;5.70;95.90
49236;DHT22;35067;48.134;8.378;2023-04-07T02:38:44;5.60;96.00
49236;DHT22;35067;48.134;8.378;2023-04-07T02:39:50;5.70;96.10
49236;DHT22;35067;48.134;8.378;2023-04-07T02:40:55;5.70;95.70
49236;DHT22;35067;48.134;8.378;2023-04-07T02:42:03;5.70;95.80
49236;DHT22;35067;48.134;8.378;2023-04-07T02:43:03;5.70;95.80
49236;DHT22;35067;48.134;8.378;2023-04-07T02:44:09;5.80;95.60
49236;DHT22;35067;48.134;8.378;2023-04-07T02:45:15;5.80;95.50
49236;DHT22;35067;48.134;8.378;2023-04-07T02:46:21;5.70;95.60
49236;DHT22;35067;48.134;8.378;2023-04-07T02:47:26;5.70;95.60
49236;DHT22;35067;48.134;8.378;2023-04-07T02:48:32;5.80;95.40
49236;DHT22;35067;48.134;8.378;2023-04-07T02:49:38;5.80;95.50
49236;DHT22;35067;48.134;8.378;2023-04-07T02:50:43;5.70;95.60
49236;DHT22;35067;48.134;8.378;2023-04-07T02:51:49;5.70;95.70
49236;DHT22;35067;48.134;8.378;2023-04-07T02:52:55;5.80;95.70
49236;DHT22;35067;48.134;8.378;2023-04-07T02:54:01;5.80;95.50
49236;DHT22;35067;48.134;8.378;2023-04-07T02:55:04;5.80;95.50
49236;DHT22;35067;48.134;8.378;2023-04-07T02:56:09;5.80;95.60
49236;DHT22;35067;48.134;8.378;2023-04-07T02:57:15;5.80;95.60
49236;DHT22;35067;48.134;8.378;2023-04-07T02:58:21;5.80;95.80
49236;DHT22;35067;48.134;8.378;2023-04-07T02:59:27;5.80;95.90
49236;DHT22;35067;48.134;8.378;2023-04-07T03:00:33;5.80;96.00
49236;DHT22;35067;48.134;8.378;2023-04-07T03:01:39;5.80;95.80
49236;DHT22;35067;48.134;8.378;2023-04-07T03:02:44;5.80;95.90
49236;DHT22;35067;48.134;8.378;2023-04-07T03:03:50;5.80;96.10
49236;DHT22;35067;48.134;8.378;2023-04-07T03:04:56;5.70;96.10
49236;DHT22;35067;48.134;8.378;2023-04-07T03:06:02;5.70;96.30
49236;DHT22;35067;48.134;8.378;2023-04-07T03:07:04;5.60;96.40
49236;DHT22;35067;48.134;8.378;2023-04-07T03:08:09;5.60;96.60
49236;DHT22;35067;48.134;8.378;2023-04-07T03:09:15;5.60;96.60
49236;DHT22;35067;48.134;8.378;2023-04-07T03:10:21;5.60;96.60
49236;DHT22;35067;48.134;8.378;2023-04-07T03:11:27;5.70;96.50
49236;DHT22;35067;48.134;8.378;2023-04-07T03:12:33;5.80;96.20
49236;DHT22;35067;48.134;8.378;2023-04-07T03:13:39;5.80;95.90
49236;DHT22;35067;48.134;8.378;2023-04-07T03:14:44;5.90;95.90
49236;DHT22;35067;48.134;8.378;2023-04-07T03:15:50;5.80;95.90
49236;DHT22;35067;48.134;8.378;2023-04-07T03:16:56;5.80;96.30
49236;DHT22;35067;48.134;8.378;2023-04-07T03:18:01;5.70;96.70
49236;DHT22;35067;48.134;8.378;2023-04-07T03:19:04;5.70;96.80
49236;DHT22;35067;48.134;8.378;2023-04-07T03:20:09;5.70;96.80
49236;DHT22;35067;48.134;8.378;2023-04-07T03:21:15;5.70;96.80
49236;DHT22;35067;48.134;8.378;2023-04-07T03:22:21;5.80;96.80
49236;DHT22;35067;48.134;8.378;2023-04-07T03:23:26;5.80;96.70
49236;DHT22;35067;48.134;8.378;2023-04-07T03:24:33;5.90;96.70
49236;DHT22;35067;48.134;8.378;2023-04-07T03:25:40;5.90;96.70
49236;DHT22;35067;48.134;8.378;2023-04-07T03:26:46;5.80;97.00
49236;DHT22;35067;48.134;8.378;2023-04-07T03:27:51;5.90;96.80
49236;DHT22;35067;48.134;8.378;2023-04-07T03:28:57;5.80;96.80
49236;DHT22;35067;48.134;8.378;2023-04-07T03:30:03;5.80;96.90
49236;DHT22;35067;48.134;8.378;2023-04-07T03:31:09;5.80;97.60
49236;DHT22;35067;48.134;8.378;2023-04-07T03:32:15;5.70;97.50
49236;DHT22;35067;48.134;8.378;2023-04-07T03:33:21;5.60;97.70
49236;DHT22;35067;48.134;8.378;2023-04-07T03:34:26;5.50;97.80
49236;DHT22;35067;48.134;8.378;2023-04-07T03:35:32;5.50;98.00
49236;DHT22;35067;48.134;8.378;2023-04-07T03:36:38;5.50;97.90
49236;DHT22;35067;48.134;8.378;2023-04-07T03:37:43;5.50;97.80
49236;DHT22;35067;48.134;8.378;2023-04-07T03:38:49;5.50;97.60
49236;DHT22;35067;48.134;8.378;2023-04-07T03:39:55;5.50;97.60
49236;DHT22;35067;48.134;8.378;2023-04-07T03:41:01;5.50;97.50
49236;DHT22;35067;48.134;8.378;2023-04-07T03:42:04;5.50;97.50
49236;DHT22;35067;48.134;8.378;2023-04-07T03:43:09;5.40;97.30
49236;DHT22;35067;48.134;8.378;2023-04-07T03:44:18;5.40;97.30
49236;DHT22;35067;48.134;8.378;2023-04-07T03:45:24;5.40;97.10
49236;DHT22;35067;48.134;8.378;2023-04-07T03:46:30;5.30;97.10
49236;DHT22;35067;48.134;8.378;2023-04-07T03:47:35;5.30;97.00
49236;DHT22;35067;48.134;8.378;2023-04-07T03:48:41;5.30;97.10
49236;DHT22;35067;48.134;8.378;2023-04-07T03:49:47;5.20;97.20
49236;DHT22;35067;48.134;8.378;2023-04-07T03:50:52;5.10;97.50
49236;DHT22;35067;48.134;8.378;2023-04-07T03:51:58;5.00;97.80
49236;DHT22;35067;48.134;8.378;2023-04-07T03:53:04;4.90;98.00
49236;DHT22;35067;48.134;8.378;2023-04-07T03:54:09;4.90;98.20
49236;DHT22;35067;48.134;8.378;2023-04-07T03:55:15;4.80;98.10
49236;DHT22;35067;48.134;8.378;2023-04-07T03:56:21;4.80;98.30
49236;DHT22;35067;48.134;8.378;2023-04-07T03:57:26;4.80;98.40
49236;DHT22;35067;48.134;8.378;2023-04-07T03:58:32;4.70;98.70
49236;DHT22;35067;48.134;8.378;2023-04-07T03:59:38;4.60;98.90
49236;DHT22;35067;48.134;8.378;2023-04-07T04:00:44;4.60;99.60
49236;DHT22;35067;48.134;8.378;2023-04-07T04:01:49;4.40;99.90
49236;DHT22;35067;48.134;8.378;2023-04-07T04:02:55;4.30;99.90
49236;DHT22;35067;48.134;8.378;2023-04-07T04:04:01;4.30;99.90
49236;DHT22;35067;48.134;8.378;2023-04-07T04:05:04;4.20;99.90
49236;DHT22;35067;48.134;8.378;2023-04-07T04:06:09;4.20;99.90
49236;DHT22;35067;48.134;8.378;2023-04-07T04:07:15;4.20;99.90
49236;DHT22;35067;48.134;8.378;2023-04-07T04:08:20;4.30;99.90
49236;DHT22;35067;48.134;8.378;2023-04-07T04:09:26;3.90;99.90
49236;DHT22;35067;48.134;8.378;2023-04-07T04:10:32;4.20;99.90
49236;DHT22;35067;48.134;8.378;2023-04-07T04:11:38;4.20;99.90
49236;DHT22;35067;48.134;8.378;2023-04-07T04:12:45;4.20;99.90
49236;DHT22;35067;48.134;8.378;2023-04-07T04:13:51;4.00;99.90
49236;DHT22;35067;48.134;8.378;2023-04-07T04:14:57;4.10;99.90
49236;DHT22;35067;48.134;8.378;2023-04-07T04:16:03;4.00;99.90
49236;DHT22;35067;48.134;8.378;2023-04-07T04:17:04;4.00;99.90
49236;DHT22;35067;48.134;8.378;2023-04-07T04:18:09;4.10;99.90
49236;DHT22;35067;48.134;8.378;2023-04-07T04:19:15;4.20;99.90
49236;DHT22;35067;48.134;8.378;2023-04-07T04:20:20;4.20;99.90
49236;DHT22;35067;48.134;8.378;2023-04-07T04:21:26;4.20;99.90
49236;DHT22;35067;48.134;8.378;2023-04-07T04:22:32;4.10;99.90
49236;DHT22;35067;48.134;8.378;2023-04-07T04:23:38;4.10;99.90
49236;DHT22;35067;48.134;8.378;2023-04-07T04:24:44;4.10;99.90
49236;DHT22;35067;48.134;8.378;2023-04-07T04:25:51;4.10;99.90
49236;DHT22;35067;48.134;8.378;2023-04-07T04:26:56;4.00;99.90
49236;DHT22;35067;48.134;8.378;2023-04-07T04:28:02;4.00;99.90
49236;DHT22;35067;48.134;8.378;2023-04-07T04:29:04;4.10;99.90
49236;DHT22;35067;48.134;8.378;2023-04-07T04:30:09;4.10;99.90
49236;DHT22;35067;48.134;8.378;2023-04-07T04:31:15;4.20;99.90
49236;DHT22;35067;48.134;8.378;2023-04-07T04:32:21;4.20;99.90
49236;DHT22;35067;48.134;8.378;2023-04-07T04:33:27;4.20;99.90
49236;DHT22;35067;48.134;8.378;2023-04-07T04:34:32;4.10;99.90
49236;DHT22;35067;48.134;8.378;2023-04-07T04:35:38;4.10;99.90
49236;DHT22;35067;48.134;8.378;2023-04-07T04:36:44;4.10;99.90
49236;DHT22;35067;48.134;8.378;2023-04-07T04:37:50;4.10;99.90
49236;DHT22;35067;48.134;8.378;2023-04-07T04:38:55;4.00;99.90
49236;DHT22;35067;48.134;8.378;2023-04-07T04:40:01;4.00;99.90
49236;DHT22;35067;48.134;8.378;2023-04-07T04:41:04;4.00;99.90
49236;DHT22;35067;48.134;8.378;2023-04-07T04:42:09;4.00;99.90
49236;DHT22;35067;48.134;8.378;2023-04-07T04:43:15;4.00;99.90
49236;DHT22;35067;48.134;8.378;2023-04-07T04:44:21;4.00;99.90
49236;DHT22;35067;48.134;8.378;2023-04-07T04:45:26;4.00;99.90
49236;DHT22;35067;48.134;8.378;2023-04-07T04:46:32;4.00;99.90
49236;DHT22;35067;48.134;8.378;2023-04-07T04:47:38;4.10;99.90
49236;DHT22;35067;48.134;8.378;2023-04-07T04:48:44;4.10;99.90
49236;DHT22;35067;48.134;8.378;2023-04-07T04:49:49;4.00;99.90
49236;DHT22;35067;48.134;8.378;2023-04-07T04:50:55;4.00;99.90
49236;DHT22;35067;48.134;8.378;2023-04-07T04:52:01;4.10;99.90
49236;DHT22;35067;48.134;8.378;2023-04-07T04:53:04;4.10;99.90
49236;DHT22;35067;48.134;8.378;2023-04-07T04:54:09;4.00;99.90
49236;DHT22;35067;48.134;8.378;2023-04-07T04:55:15;4.00;99.90
49236;DHT22;35067;48.134;8.378;2023-04-07T04:56:21;4.10;99.90
49236;DHT22;35067;48.134;8.378;2023-04-07T04:57:26;4.20;99.90
49236;DHT22;35067;48.134;8.378;2023-04-07T04:58:33;4.20;99.90
49236;DHT22;35067;48.134;8.378;2023-04-07T04:59:39;4.20;99.90
49236;DHT22;35067;48.134;8.378;2023-04-07T05:00:45;4.20;99.90
49236;DHT22;35067;48.134;8.378;2023-04-07T05:01:50;4.20;99.90
49236;DHT22;35067;48.134;8.378;2023-04-07T05:02:56;4.20;99.90
49236;DHT22;35067;48.134;8.378;2023-04-07T05:04:02;4.20;99.90
49236;DHT22;35067;48.134;8.378;2023-04-07T05:05:04;4.20;99.90
49236;DHT22;35067;48.134;8.378;2023-04-07T05:06:08;4.20;99.90
49236;DHT22;35067;48.134;8.378;2023-04-07T05:07:14;4.20;99.90
49236;DHT22;35067;48.134;8.378;2023-04-07T05:08:20;4.20;99.90
49236;DHT22;35067;48.134;8.378;2023-04-07T05:09:26;4.10;99.90
49236;DHT22;35067;48.134;8.378;2023-04-07T05:10:31;4.00;99.90
49236;DHT22;35067;48.134;8.378;2023-04-07T05:11:37;3.90;99.90
49236;DHT22;35067;48.134;8.378;2023-04-07T05:12:45;3.90;99.90
49236;DHT22;35067;48.134;8.378;2023-04-07T05:13:51;3.90;99.90
49236;DHT22;35067;48.134;8.378;2023-04-07T05:14:56;3.90;99.90
49236;DHT22;35067;48.134;8.378;2023-04-07T05:16:02;4.00;99.90
49236;DHT22;35067;48.134;8.378;2023-04-07T05:17:04;4.20;99.90
49236;DHT22;35067;48.134;8.378;2023-04-07T05:18:09;4.20;99.90
49236;DHT22;35067;48.134;8.378;2023-04-07T05:19:15;4.30;99.90
49236;DHT22;35067;48.134;8.378;2023-04-07T05:20:21;4.30;99.90
49236;DHT22;35067;48.134;8.378;2023-04-07T05:21:26;4.40;99.90
49236;DHT22;35067;48.134;8.378;2023-04-07T05:22:32;4.50;99.90
49236;DHT22;35067;48.134;8.378;2023-04-07T05:23:38;4.50;99.90
49236;DHT22;35067;48.134;8.378;2023-04-07T05:24:43;4.60;99.90
49236;DHT22;35067;48.134;8.378;2023-04-07T05:25:49;4.60;99.90
49236;DHT22;35067;48.134;8.378;2023-04-07T05:26:55;4.50;99.90
49236;DHT22;35067;48.134;8.378;2023-04-07T05:28:01;4.40;99.90
49236;DHT22;35067;48.134;8.378;2023-04-07T05:29:04;4.30;99.90
49236;DHT22;35067;48.134;8.378;2023-04-07T05:30:09;4.30;99.90
49236;DHT22;35067;48.134;8.378;2023-04-07T05:31:15;4.30;99.90
49236;DHT22;35067;48.134;8.378;2023-04-07T05:32:21;4.40;99.90
49236;DHT22;35067;48.134;8.378;2023-04-07T05:33:27;4.40;99.90
49236;DHT22;35067;48.134;8.378;2023-04-07T05:34:33;4.50;99.90
49236;DHT22;35067;48.134;8.378;2023-04-07T05:35:38;4.60;99.90
49236;DHT22;35067;48.134;8.378;2023-04-07T05:36:44;4.60;99.90
49236;DHT22;35067;48.134;8.378;2023-04-07T05:37:50;4.70;99.90
49236;DHT22;35067;48.134;8.378;2023-04-07T05:38:56;4.70;99.90
49236;DHT22;35067;48.134;8.378;2023-04-07T05:40:01;4.70;99.90
49236;DHT22;35067;48.134;8.378;2023-04-07T05:41:04;4.80;99.90
49236;DHT22;35067;48.134;8.378;2023-04-07T05:42:09;4.80;99.90
49236;DHT22;35067;48.134;8.378;2023-04-07T05:43:15;4.90;99.90
49236;DHT22;35067;48.134;8.378;2023-04-07T05:44:21;4.90;99.90
49236;DHT22;35067;48.134;8.378;2023-04-07T05:45:26;5.00;99.70
49236;DHT22;35067;48.134;8.378;2023-04-07T05:46:32;5.00;99.90
49236;DHT22;35067;48.134;8.378;2023-04-07T05:47:38;5.00;99.30
49236;DHT22;35067;48.134;8.378;2023-04-07T05:48:43;4.90;99.30
49236;DHT22;35067;48.134;8.378;2023-04-07T05:49:49;5.00;99.30
49236;DHT22;35067;48.134;8.378;2023-04-07T05:50:55;5.00;99.10
49236;DHT22;35067;48.134;8.378;2023-04-07T05:52:01;5.10;99.00
49236;DHT22;35067;48.134;8.378;2023-04-07T05:53:08;5.10;98.90
49236;DHT22;35067;48.134;8.378;2023-04-07T05:54:14;5.10;98.80
49236;DHT22;35067;48.134;8.378;2023-04-07T05:55:20;5.20;98.90
49236;DHT22;35067;48.134;8.378;2023-04-07T05:56:26;5.30;98.70
49236;DHT22;35067;48.134;8.378;2023-04-07T05:57:32;5.40;98.50
49236;DHT22;35067;48.134;8.378;2023-04-07T05:58:38;5.50;98.30
49236;DHT22;35067;48.134;8.378;2023-04-07T05:59:44;5.60;98.30
49236;DHT22;35067;48.134;8.378;2023-04-07T06:00:50;5.70;98.10
49236;DHT22;35067;48.134;8.378;2023-04-07T06:01:55;5.80;98.30
49236;DHT22;35067;48.134;8.378;2023-04-07T06:03:01;5.80;97.60
49236;DHT22;35067;48.134;8.378;2023-04-07T06:04:04;5.80;97.70
49236;DHT22;35067;48.134;8.378;2023-04-07T06:05:09;5.80;97.00
49236;DHT22;35067;48.134;8.378;2023-04-07T06:06:15;5.90;97.10
49236;DHT22;35067;48.134;8.378;2023-04-07T06:07:21;6.00;97.00
49236;DHT22;35067;48.134;8.378;2023-04-07T06:08:26;6.10;96.70
49236;DHT22;35067;48.134;8.378;2023-04-07T06:09:32;6.20;96.00
49236;DHT22;35067;48.134;8.378;2023-04-07T06:10:38;6.30;95.30
49236;DHT22;35067;48.134;8.378;2023-04-07T06:11:46;6.40;95.00
49236;DHT22;35067;48.134;8.378;2023-04-07T06:12:51;6.50;94.70
49236;DHT22;35067;48.134;8.378;2023-04-07T06:13:57;6.60;93.80
49236;DHT22;35067;48.134;8.378;2023-04-07T06:15:03;6.70;93.40
49236;DHT22;35067;48.134;8.378;2023-04-07T06:16:04;6.70;93.00
49236;DHT22;35067;48.134;8.378;2023-04-07T06:17:09;6.70;92.70
49236;DHT22;35067;48.134;8.378;2023-04-07T06:18:15;6.50;93.60
49236;DHT22;35067;48.134;8.378;2023-04-07T06:19:20;6.50;93.90
49236;DHT22;35067;48.134;8.378;2023-04-07T06:20:26;6.60;93.90
49236;DHT22;35067;48.134;8.378;2023-04-07T06:21:32;6.60;93.90
49236;DHT22;35067;48.134;8.378;2023-04-07T06:22:38;6.60;93.90
49236;DHT22;35067;48.134;8.378;2023-04-07T06:23:44;6.70;93.90
49236;DHT22;35067;48.134;8.378;2023-04-07T06:24:49;6.70;93.90
49236;DHT22;35067;48.134;8.378;2023-04-07T06:25:55;6.70;93.60
49236;DHT22;35067;48.134;8.378;2023-04-07T06:27:02;6.80;93.40
49236;DHT22;35067;48.134;8.378;2023-04-07T06:28:04;6.80;93.10
49236;DHT22;35067;48.134;8.378;2023-04-07T06:29:08;6.90;93.10
49236;DHT22;35067;48.134;8.378;2023-04-07T06:30:14;6.90;92.90
49236;DHT22;35067;48.134;8.378;2023-04-07T06:31:20;6.90;93.00
49236;DHT22;35067;48.134;8.378;2023-04-07T06:32:26;6.90;92.80
49236;DHT22;35067;48.134;8.378;2023-04-07T06:33:32;6.90;92.90
49236;DHT22;35067;48.134;8.378;2023-04-07T06:34:38;6.90;92.90
49236;DHT22;35067;48.134;8.378;2023-04-07T06:35:44;6.80;92.70
49236;DHT22;35067;48.134;8.378;2023-04-07T06:36:49;6.70;93.40
49236;DHT22;35067;48.134;8.378;2023-04-07T06:37:55;6.60;94.30
49236;DHT22;35067;48.134;8.378;2023-04-07T06:39:01;6.40;95.10
49236;DHT22;35067;48.134;8.378;2023-04-07T06:40:06;6.30;95.70
49236;DHT22;35067;48.134;8.378;2023-04-07T06:41:09;6.20;95.90
49236;DHT22;35067;48.134;8.378;2023-04-07T06:42:21;6.20;96.10
49236;DHT22;35067;48.134;8.378;2023-04-07T06:43:26;6.20;96.10
49236;DHT22;35067;48.134;8.378;2023-04-07T06:44:32;6.20;96.20
49236;DHT22;35067;48.134;8.378;2023-04-07T06:45:38;6.20;96.10
49236;DHT22;35067;48.134;8.378;2023-04-07T06:46:43;6.20;95.90
49236;DHT22;35067;48.134;8.378;2023-04-07T06:47:51;6.20;96.00
49236;DHT22;35067;48.134;8.378;2023-04-07T06:48:57;6.20;96.00
49236;DHT22;35067;48.134;8.378;2023-04-07T06:50:03;6.30;96.10
49236;DHT22;35067;48.134;8.378;2023-04-07T06:51:08;6.30;96.20
49236;DHT22;35067;48.134;8.378;2023-04-07T06:52:14;6.40;96.10
49236;DHT22;35067;48.134;8.378;2023-04-07T06:53:20;6.50;96.00
49236;DHT22;35067;48.134;8.378;2023-04-07T06:54:26;6.60;95.60
49236;DHT22;35067;48.134;8.378;2023-04-07T06:55:31;6.70;95.50
49236;DHT22;35067;48.134;8.378;2023-04-07T06:56:37;6.80;95.10
49236;DHT22;35067;48.134;8.378;2023-04-07T06:57:43;6.90;94.90
49236;DHT22;35067;48.134;8.378;2023-04-07T06:58:49;6.90;94.70
49236;DHT22;35067;48.134;8.378;2023-04-07T06:59:55;7.00;94.40
49236;DHT22;35067;48.134;8.378;2023-04-07T07:01:01;7.00;94.40
49236;DHT22;35067;48.134;8.378;2023-04-07T07:02:04;7.20;94.20
49236;DHT22;35067;48.134;8.378;2023-04-07T07:03:09;7.30;94.00
49236;DHT22;35067;48.134;8.378;2023-04-07T07:04:15;7.40;93.50
49236;DHT22;35067;48.134;8.378;2023-04-07T07:05:20;7.50;93.50
49236;DHT22;35067;48.134;8.378;2023-04-07T07:06:27;7.50;93.40
49236;DHT22;35067;48.134;8.378;2023-04-07T07:07:33;7.60;93.10
49236;DHT22;35067;48.134;8.378;2023-04-07T07:08:39;7.70;92.90
49236;DHT22;35067;48.134;8.378;2023-04-07T07:09:45;7.70;92.50
49236;DHT22;35067;48.134;8.378;2023-04-07T07:10:51;7.80;92.20
49236;DHT22;35067;48.134;8.378;2023-04-07T07:11:57;8.00;91.30
49236;DHT22;35067;48.134;8.378;2023-04-07T07:13:02;8.00;90.90
49236;DHT22;35067;48.134;8.378;2023-04-07T07:14:03;8.20;90.50